Time;durP1;ratioP1;P1;durP2;ratioP2;P2;SDS_P1;SDS_P2;PMS_P1;PMS_P2;Temp;Humidity;BMP_temperature;BMP_pressure;BME280_temperature;BME280_humidity;BME280_pressure;Samples;Min_cycle;Max_cycle;Signal;HPM_P1;HPM_P2
2022/04/26 03:36:51;;;;;;;17.90;7.05;;;5.50;99.90;;;;;;5092423;28;20052;-76
2022/04/26 03:39:17;;;;;;;19.02;7.43;;;5.40;99.90;;;;;;5092627;28;20040;-76
2022/04/26 03:41:42;;;;;;;12.43;6.90;;;5.40;99.90;;;;;;5113622;28;20062;-76
2022/04/26 03:44:09;;;;;;;16.60;7.72;;;5.40;99.90;;;;;;5113714;28;20408;-76
2022/04/26 03:46:35;;;;;;;16.10;7.55;;;5.40;99.90;;;;;;5110640;28;20048;-76
2022/04/26 03:49:01;;;;;;;19.20;7.30;;;5.40;99.90;;;;;;5112667;28;20051;-76
2022/04/26 03:51:27;;;;;;;21.77;7.65;;;5.40;99.90;;;;;;5114330;28;20083;-76
2022/04/26 03:53:52;;;;;;;16.15;6.97;;;5.40;99.90;;;;;;5116964;28;20071;-76
2022/04/26 03:56:18;;;;;;;24.00;7.82;;;5.40;99.90;;;;;;5117938;28;20039;-76
2022/04/26 03:58:44;;;;;;;18.30;8.68;;;5.30;99.90;;;;;;5116282;28;20458;-76
2022/04/26 04:01:09;;;;;;;15.40;6.00;;;5.40;99.90;;;;;;5115652;28;20054;-76
2022/04/26 04:03:38;;;;;;;17.77;6.53;;;5.40;99.90;;;;;;5115347;28;20407;-76
2022/04/26 04:06:05;;;;;;;19.92;7.07;;;5.30;99.90;;;;;;5115587;28;20100;-76
2022/04/26 04:08:30;;;;;;;13.63;6.63;;;5.30;99.90;;;;;;5115431;28;20090;-77
2022/04/26 04:10:56;;;;;;;21.52;6.28;;;5.30;99.90;;;;;;5115180;28;20083;-77
2022/04/26 04:13:22;;;;;;;16.25;6.35;;;5.30;99.90;;;;;;5115832;28;20051;-76
2022/04/26 04:15:48;;;;;;;18.17;6.35;;;5.30;99.90;;;;;;5117470;28;20035;-76
2022/04/26 04:20:58;;;;;;;14.13;5.43;;;5.30;99.90;;;;;;5115374;28;20399;-76
2022/04/26 04:23:23;;;;;;;19.65;6.63;;;5.30;99.90;;;;;;5131666;27;20112;-76
2022/04/26 04:25:49;;;;;;;19.35;5.38;;;5.40;99.90;;;;;;5116273;28;20475;-76
2022/04/26 04:28:15;;;;;;;23.08;5.55;;;5.30;99.90;;;;;;5114350;28;20407;-76
2022/04/26 04:30:42;;;;;;;14.13;6.00;;;5.40;99.90;;;;;;5115144;28;20119;-76
2022/04/26 04:33:08;;;;;;;16.33;5.78;;;5.40;99.90;;;;;;5116379;27;20050;-77
2022/04/26 04:35:34;;;;;;;16.27;5.25;;;5.40;99.90;;;;;;5115570;28;20123;-76
2022/04/26 04:38:00;;;;;;;16.42;6.40;;;5.30;99.90;;;;;;5115955;28;20522;-77
2022/04/26 04:40:26;;;;;;;13.85;5.10;;;5.40;99.90;;;;;;5115513;28;20046;-77
2022/04/26 04:42:52;;;;;;;15.13;5.93;;;5.40;99.90;;;;;;5114666;28;20043;-77
2022/04/26 04:45:17;;;;;;;17.20;5.45;;;5.40;99.90;;;;;;5116995;28;20127;-77
2022/04/26 04:47:44;;;;;;;16.15;5.13;;;5.40;99.90;;;;;;5113908;28;20039;-77
2022/04/26 04:50:10;;;;;;;15.20;5.80;;;5.40;99.90;;;;;;5114585;28;20054;-77
2022/04/26 04:52:36;;;;;;;21.58;5.60;;;5.50;99.90;;;;;;5112841;28;20059;-77
2022/04/26 04:55:02;;;;;;;20.63;6.18;;;5.50;99.90;;;;;;5115043;27;20473;-77
2022/04/26 04:57:28;;;;;;;20.67;5.65;;;5.60;99.90;;;;;;5116566;28;20040;-77
2022/04/26 04:59:53;;;;;;;13.98;5.00;;;5.60;99.90;;;;;;5116597;28;20043;-77
2022/04/26 05:02:19;;;;;;;10.90;4.88;;;5.60;99.90;;;;;;5115449;28;20035;-76
2022/04/26 05:04:47;;;;;;;10.93;4.40;;;5.60;99.90;;;;;;5115249;28;20062;-77
2022/04/26 05:07:12;;;;;;;18.85;4.90;;;5.70;99.90;;;;;;5098740;28;20055;-77
2022/04/26 05:09:38;;;;;;;23.80;5.55;;;5.70;99.90;;;;;;5114639;28;20039;-77
2022/04/26 05:12:05;;;;;;;18.90;5.40;;;5.70;99.90;;;;;;5098588;27;20471;-77
2022/04/26 05:14:32;;;;;;;17.92;5.47;;;5.70;99.90;;;;;;5098290;28;20052;-77
2022/04/26 05:16:58;;;;;;;15.43;4.82;;;5.70;99.90;;;;;;5114209;28;20136;-77
2022/04/26 05:19:23;;;;;;;15.60;5.60;;;5.80;99.90;;;;;;5116399;28;20039;-77
2022/04/26 05:21:49;;;;;;;13.50;5.00;;;5.80;99.90;;;;;;5131992;27;20497;-77
2022/04/26 05:26:59;;;;;;;14.65;6.13;;;6.00;99.90;;;;;;5114937;28;20059;-76
2022/04/26 05:29:25;;;;;;;13.25;4.72;;;6.10;99.90;;;;;;5116740;27;20043;-77
2022/04/26 05:31:51;;;;;;;18.98;5.72;;;6.20;99.90;;;;;;5115399;28;20514;-77
2022/04/26 05:34:16;;;;;;;14.75;4.57;;;6.30;99.90;;;;;;5131784;27;20059;-76
2022/04/26 05:36:42;;;;;;;14.63;5.00;;;6.40;99.90;;;;;;5115378;28;20051;-77
2022/04/26 05:39:08;;;;;;;14.48;4.78;;;6.50;99.90;;;;;;5115822;28;20054;-77
2022/04/26 05:41:34;;;;;;;18.92;4.88;;;6.60;99.90;;;;;;5114943;28;20044;-77
2022/04/26 05:43:59;;;;;;;10.98;4.53;;;6.70;99.90;;;;;;5115197;28;20479;-77
2022/04/26 05:46:25;;;;;;;13.38;4.82;;;6.80;99.90;;;;;;5116330;27;20074;-77
2022/04/26 05:48:51;;;;;;;12.45;4.18;;;6.90;99.90;;;;;;5114264;28;20039;-77
2022/04/26 05:51:17;;;;;;;10.10;4.10;;;6.90;99.90;;;;;;5112486;28;20060;-78
2022/04/26 05:53:43;;;;;;;16.15;4.78;;;7.00;99.90;;;;;;5113481;28;20083;-77
2022/04/26 05:56:10;;;;;;;11.90;4.18;;;7.20;99.90;;;;;;5094959;28;20071;-78
2022/04/26 05:58:37;;;;;;;8.43;3.78;;;7.20;99.90;;;;;;5113142;28;20183;-78
2022/04/26 06:01:03;;;;;;;14.02;4.82;;;7.40;99.90;;;;;;5114300;28;20044;-78
2022/04/26 06:03:29;;;;;;;15.65;4.30;;;7.40;99.90;;;;;;5114431;27;20040;-78
2022/04/26 06:05:57;;;;;;;12.52;4.13;;;7.50;99.90;;;;;;5113517;28;20047;-78
2022/04/26 06:08:23;;;;;;;10.70;4.32;;;7.60;99.90;;;;;;5097116;28;20136;-78
2022/04/26 06:10:49;;;;;;;11.18;4.03;;;7.70;99.90;;;;;;5115083;28;20043;-78
2022/04/26 06:13:15;;;;;;;11.43;3.80;;;7.80;99.90;;;;;;5112289;28;20513;-78
2022/04/26 06:15:41;;;;;;;11.15;4.18;;;7.80;99.90;;;;;;5114090;28;20040;-78
2022/04/26 06:18:07;;;;;;;12.10;3.83;;;7.90;99.90;;;;;;5112860;28;20499;-78
2022/04/26 06:20:33;;;;;;;16.27;3.78;;;8.00;99.90;;;;;;5098147;28;20079;-79
2022/04/26 06:23:00;;;;;;;13.93;4.07;;;8.10;99.90;;;;;;5078160;28;20095;-78
2022/04/26 06:25:26;;;;;;;17.27;5.32;;;8.20;99.90;;;;;;5112730;28;20499;-77
2022/04/26 06:27:52;;;;;;;12.35;3.60;;;8.30;99.90;;;;;;5109195;28;20139;-79
2022/04/26 06:30:18;;;;;;;14.45;3.83;;;8.40;99.90;;;;;;5095091;28;20127;-80
2022/04/26 06:32:43;;;;;;;16.30;4.38;;;8.50;99.90;;;;;;5096611;28;20462;-78
2022/04/26 06:35:10;;;;;;;8.93;3.67;;;8.60;99.90;;;;;;5083017;28;20044;-78
2022/04/26 06:37:36;;;;;;;7.85;3.50;;;8.70;99.90;;;;;;5107321;28;20379;-79
2022/04/26 06:40:04;;;;;;;8.52;3.38;;;8.70;99.90;;;;;;5113691;28;20088;-79
2022/04/26 06:42:30;;;;;;;6.53;2.95;;;8.60;99.90;;;;;;5099978;28;20079;-80
2022/04/26 06:44:55;;;;;;;7.97;3.53;;;8.50;99.90;;;;;;5103949;28;20098;-78
2022/04/26 06:47:21;;;;;;;10.50;3.42;;;8.50;99.90;;;;;;5093435;28;20051;-80
2022/04/26 06:49:47;;;;;;;12.05;3.55;;;8.50;99.90;;;;;;5112356;28;20387;-79
2022/04/26 06:52:13;;;;;;;11.05;4.13;;;8.50;99.90;;;;;;5116096;27;20047;-80
2022/04/26 06:54:38;;;;;;;11.32;4.05;;;8.60;99.90;;;;;;5096850;28;20519;-79
2022/04/26 06:57:04;;;;;;;6.35;3.00;;;8.60;99.90;;;;;;5108816;28;20042;-78
2022/04/26 06:59:30;;;;;;;8.90;3.60;;;8.60;99.90;;;;;;5109205;28;20051;-80
2022/04/26 07:01:56;;;;;;;12.88;3.92;;;8.60;99.90;;;;;;5095817;28;20058;-79
2022/04/26 07:04:22;;;;;;;12.73;3.22;;;8.60;99.90;;;;;;5087824;28;20042;-79
2022/04/26 07:06:48;;;;;;;8.18;2.80;;;8.70;99.90;;;;;;5093019;28;20043;-79
2022/04/26 07:09:14;;;;;;;9.95;3.60;;;8.70;99.90;;;;;;5093605;28;20395;-79
2022/04/26 07:11:43;;;;;;;8.35;3.13;;;8.70;99.90;;;;;;5112900;28;20036;-79
2022/04/26 07:14:11;;;;;;;6.03;2.78;;;8.70;99.90;;;;;;5112921;28;20082;-79
2022/04/26 07:16:38;;;;;;;8.65;3.28;;;8.70;99.90;;;;;;5111965;28;20390;-78
2022/04/26 07:19:04;;;;;;;9.82;2.90;;;8.60;99.90;;;;;;5113056;28;20451;-80
2022/04/26 07:21:30;;;;;;;5.65;2.65;;;8.50;99.90;;;;;;5111007;28;20124;-79
2022/04/26 07:23:56;;;;;;;10.00;2.97;;;8.50;99.90;;;;;;5105624;28;20035;-80
2022/04/26 07:26:21;;;;;;;11.60;3.85;;;8.50;99.90;;;;;;5097022;28;20513;-79
2022/04/26 07:28:47;;;;;;;8.35;3.75;;;8.60;99.90;;;;;;5105111;28;20059;-79
2022/04/26 07:31:14;;;;;;;9.07;3.33;;;8.70;99.90;;;;;;5095623;28;20394;-78
2022/04/26 07:36:24;;;;;;;8.00;2.88;;;9.00;99.90;;;;;;5111418;28;20406;-79
2022/04/26 07:38:50;;;;;;;13.38;3.03;;;9.20;99.90;;;;;;5093599;28;20043;-78
2022/04/26 07:41:17;;;;;;;9.02;3.17;;;9.40;99.90;;;;;;5096216;28;20055;-79
2022/04/26 07:43:44;;;;;;;6.50;3.25;;;9.60;99.90;;;;;;5111665;28;20104;-78
2022/04/26 07:46:13;;;;;;;6.20;2.35;;;9.80;99.90;;;;;;5126359;28;20043;-79
2022/04/26 07:48:42;;;;;;;8.82;2.72;;;9.90;99.90;;;;;;5096134;28;20074;-80
2022/04/26 07:51:09;;;;;;;5.55;2.60;;;10.00;99.90;;;;;;5098231;28;20043;-79
2022/04/26 07:53:35;;;;;;;6.10;2.53;;;9.90;99.90;;;;;;5105535;28;20048;-79
2022/04/26 07:56:01;;;;;;;9.10;3.45;;;9.70;99.90;;;;;;5105679;28;20057;-79
2022/04/26 07:58:27;;;;;;;8.50;2.78;;;9.70;99.90;;;;;;5110429;28;20048;-79
2022/04/26 08:00:53;;;;;;;5.95;2.67;;;9.80;99.90;;;;;;5103799;28;20042;-80
2022/04/26 08:03:20;;;;;;;6.55;2.95;;;10.00;99.90;;;;;;5109370;28;20433;-81
2022/04/26 08:05:46;;;;;;;12.90;2.60;;;10.00;99.90;;;;;;5108337;28;20047;-78
2022/04/26 08:08:12;;;;;;;10.30;2.95;;;10.10;99.90;;;;;;5114370;28;20087;-80
2022/04/26 08:10:38;;;;;;;13.18;4.15;;;10.20;99.90;;;;;;5107951;28;20079;-81
2022/04/26 08:13:04;;;;;;;5.55;2.10;;;10.30;99.90;;;;;;5108341;28;20104;-78
2022/04/26 08:15:30;;;;;;;6.38;2.35;;;10.30;99.90;;;;;;5112937;28;20108;-79
2022/04/26 08:17:56;;;;;;;7.00;2.20;;;10.20;99.90;;;;;;5093121;28;20087;-80
2022/04/26 08:20:24;;;;;;;9.88;2.22;;;10.10;99.90;;;;;;5105143;28;20079;-80
2022/04/26 08:22:50;;;;;;;7.95;1.92;;;10.00;99.90;;;;;;5120511;27;20085;-80
2022/04/26 08:28:01;;;;;;;5.38;2.35;;;9.90;99.90;;;;;;5111657;28;20474;-81
2022/04/26 08:30:27;;;;;;;10.52;3.60;;;10.00;99.90;;;;;;5111986;28;20055;-79
2022/04/26 08:32:53;;;;;;;5.10;1.67;;;10.10;99.90;;;;;;5121934;28;20039;-78
2022/04/26 08:35:22;;;;;;;4.90;2.03;;;10.00;99.90;;;;;;5109531;28;20036;-79
2022/04/26 08:37:48;;;;;;;5.72;2.30;;;10.00;99.90;;;;;;5109344;28;20503;-79
2022/04/26 08:40:14;;;;;;;6.47;2.35;;;9.90;99.90;;;;;;5095605;28;20079;-78
2022/04/26 08:42:42;;;;;;;2.20;1.33;;;9.80;99.90;;;;;;5099903;28;20124;-79
2022/04/26 08:45:11;;;;;;;8.25;2.22;;;9.90;99.90;;;;;;5115172;28;20042;-81
2022/04/26 08:53:15;;;;;;;5.70;2.38;;;10.00;99.90;;;;;;5097610;28;20053;-80
2022/04/26 08:55:56;;;;;;;10.20;2.45;;;10.20;99.90;;;;;;5095436;28;20126;-79
2022/04/26 08:58:25;;;;;;;4.07;1.52;;;10.50;99.90;;;;;;5082633;28;20082;-79
2022/04/26 09:01:06;;;;;;;7.35;1.88;;;10.50;99.90;;;;;;5094266;28;20059;-78
2022/04/26 09:03:33;;;;;;;5.72;2.08;;;10.50;99.90;;;;;;5103952;28;20055;-77
2022/04/26 09:06:15;;;;;;;7.13;1.90;;;10.60;99.90;;;;;;5112038;28;20096;-80
2022/04/26 09:08:43;;;;;;;6.28;1.75;;;10.60;99.90;;;;;;5102386;28;20039;-79
2022/04/26 09:11:33;;;;;;;4.35;1.83;;;10.40;99.90;;;;;;5095671;28;20044;-79
2022/04/26 09:13:59;;;;;;;7.07;2.40;;;10.40;99.90;;;;;;5100594;28;22092;-79
2022/04/26 09:16:25;;;;;;;5.63;2.50;;;10.40;99.90;;;;;;5114315;28;20044;-77
2022/04/26 09:18:53;;;;;;;5.35;1.83;;;10.40;99.90;;;;;;5112559;28;20055;-79
2022/04/26 09:21:19;;;;;;;6.35;2.05;;;10.50;99.90;;;;;;5098498;28;20500;-79
2022/04/26 09:23:47;;;;;;;8.52;2.35;;;10.60;99.90;;;;;;5115072;27;20066;-80
2022/04/26 09:26:17;;;;;;;7.38;2.05;;;10.70;99.90;;;;;;5114840;28;20044;-80
2022/04/26 09:28:45;;;;;;;6.10;2.03;;;10.80;99.90;;;;;;5117622;27;20109;-80
2022/04/26 09:31:22;;;;;;;6.32;2.40;;;10.90;99.90;;;;;;5114512;28;20467;-79
2022/04/26 09:33:53;;;;;;;5.78;2.50;;;11.00;99.90;;;;;;5116054;28;20101;-79
2022/04/26 09:36:20;;;;;;;7.63;2.90;;;11.00;99.90;;;;;;5115091;28;20047;-79
2022/04/26 09:38:53;;;;;;;4.55;2.05;;;11.00;99.90;;;;;;5115948;28;20092;-79
2022/04/26 09:41:19;;;;;;;7.97;2.97;;;11.10;99.90;;;;;;5116085;27;20113;-78
2022/04/26 09:43:55;;;;;;;1.38;1.13;;;11.30;99.90;;;;;;5110237;28;20437;-79
2022/04/26 09:46:21;;;;;;;8.68;2.60;;;11.40;99.90;;;;;;5130956;27;20478;-79
2022/04/26 09:48:48;;;;;;;9.15;2.25;;;11.40;99.90;;;;;;5101816;28;20039;-80
2022/04/26 09:51:13;;;;;;;7.43;2.42;;;11.50;99.90;;;;;;5092817;28;20074;-80
2022/04/26 09:53:42;;;;;;;8.30;2.30;;;11.70;99.90;;;;;;5093918;28;20056;-78
2022/04/26 09:56:13;;;;;;;6.75;2.33;;;11.80;99.90;;;;;;5103636;28;20482;-79
2022/04/26 09:58:41;;;;;;;6.72;2.10;;;11.70;99.90;;;;;;5111686;28;20090;-79
2022/04/26 10:01:07;;;;;;;2.72;1.55;;;11.80;99.90;;;;;;5107087;27;20043;-80
2022/04/26 10:03:37;;;;;;;7.30;1.92;;;11.80;99.90;;;;;;5115256;28;20394;-80
2022/04/26 10:06:07;;;;;;;6.80;2.10;;;11.90;99.90;;;;;;5130214;27;20130;-79
2022/04/26 10:08:36;;;;;;;6.20;2.15;;;12.00;99.90;;;;;;5109867;28;20055;-77
2022/04/26 10:11:04;;;;;;;9.32;2.33;;;12.10;99.90;;;;;;5114555;28;20115;-79
2022/04/26 10:13:35;;;;;;;4.53;2.05;;;12.10;99.90;;;;;;5098517;27;20058;-79
2022/04/26 10:16:19;;;;;;;4.22;2.10;;;12.00;99.90;;;;;;5103373;28;20073;-80
2022/04/26 10:18:47;;;;;;;7.53;3.35;;;12.10;99.90;;;;;;5106772;28;20051;-80
2022/04/26 10:21:38;;;;;;;6.20;2.03;;;11.90;99.90;;;;;;5093646;28;20126;-80
2022/04/26 10:24:13;;;;;;;5.63;1.65;;;11.80;99.90;;;;;;5099610;28;20040;-80
2022/04/26 10:26:40;;;;;;;5.47;2.28;;;11.80;99.90;;;;;;5092620;28;20044;-80
2022/04/26 10:29:09;;;;;;;6.07;1.90;;;12.00;99.90;;;;;;5093629;28;20048;-79
2022/04/26 10:31:38;;;;;;;8.10;1.63;;;12.00;99.90;;;;;;5110152;28;20044;-80
2022/04/26 10:34:26;;;;;;;2.83;1.77;;;12.00;99.90;;;;;;5092471;28;20048;-80
2022/04/26 10:37:01;;;;;;;6.22;1.95;;;12.00;99.90;;;;;;5097479;28;20044;-79
2022/04/26 10:39:41;;;;;;;6.97;1.92;;;12.10;99.90;;;;;;5102078;28;20375;-79
2022/04/26 10:42:13;;;;;;;4.95;2.17;;;12.30;99.90;;;;;;5111392;28;20177;-79
2022/04/26 10:44:43;;;;;;;6.68;1.98;;;12.50;99.90;;;;;;5111791;28;20446;-78
2022/04/26 10:47:09;;;;;;;6.60;1.80;;;12.60;99.90;;;;;;5107719;28;20044;-78
2022/04/26 10:49:38;;;;;;;5.35;1.83;;;12.90;99.90;;;;;;5108419;28;20498;-79
2022/04/26 10:52:33;;;;;;;7.55;2.70;;;13.00;99.60;;;;;;5111775;28;20079;-79
2022/04/26 10:54:59;;;;;;;;;;;13.00;99.90;;;;;;5083958;28;20083;-78
2022/04/26 10:57:29;;;;;;;6.60;1.73;;;12.90;99.90;;;;;;5094047;28;20002;-80
2022/04/26 11:00:02;;;;;;;6.00;2.40;;;12.60;99.90;;;;;;5093731;28;20028;-79
2022/04/26 11:02:35;;;;;;;4.35;2.22;;;12.40;99.90;;;;;;5093188;28;20044;-79
2022/04/26 11:05:03;;;;;;;4.97;2.10;;;12.40;99.90;;;;;;5093469;28;20062;-79
2022/04/26 11:07:29;;;;;;;6.68;1.70;;;12.50;99.90;;;;;;5093101;28;20133;-78
2022/04/26 11:10:00;;;;;;;6.97;1.90;;;12.50;99.90;;;;;;5094747;28;20402;-79
2022/04/26 11:12:32;;;;;;;4.20;1.90;;;12.30;99.90;;;;;;5092706;28;20043;-79
2022/04/26 11:15:09;;;;;;;2.45;1.45;;;12.20;99.90;;;;;;5093211;28;20048;-78
2022/04/26 11:17:38;;;;;;;5.28;1.55;;;12.30;98.70;;;;;;5092745;28;20088;-79
2022/04/26 11:20:10;;;;;;;5.75;2.13;;;12.50;98.00;;;;;;5106424;28;20417;-80
2022/04/26 11:22:43;;;;;;;5.28;1.98;;;12.70;98.40;;;;;;5111741;28;20079;-78
2022/04/26 11:30:56;;;;;;;3.20;1.80;;;13.20;97.70;;;;;;5088702;28;20051;-81
2022/04/26 11:33:25;;;;;;;6.38;2.03;;;13.30;95.30;;;;;;5093707;28;20126;-78
2022/04/26 11:35:57;;;;;;;5.43;1.90;;;13.10;95.60;;;;;;5091633;28;20093;-78
2022/04/26 11:38:24;;;;;;;5.75;1.92;;;13.10;96.20;;;;;;5092667;28;20386;-79
2022/04/26 11:40:52;;;;;;;4.75;1.60;;;13.10;97.70;;;;;;5093543;28;20043;-80
2022/04/26 11:43:20;;;;;;;3.67;1.90;;;13.00;95.60;;;;;;5091382;28;20044;-79
2022/04/26 11:45:50;;;;;;;5.05;1.48;;;12.90;96.70;;;;;;5093685;28;20040;-79
2022/04/26 11:48:24;;;;;;;4.57;2.13;;;13.00;96.00;;;;;;5092403;28;20094;-78
2022/04/26 11:50:52;;;;;;;5.68;2.08;;;12.90;96.60;;;;;;5109979;28;20063;-78
2022/04/26 11:53:23;;;;;;;4.93;1.52;;;12.90;97.70;;;;;;5108476;28;20115;-78
2022/04/26 11:56:00;;;;;;;3.67;1.65;;;13.00;96.40;;;;;;5098981;28;20379;-82
2022/04/26 11:58:34;;;;;;;5.20;2.35;;;13.10;94.40;;;;;;5111859;28;20367;-78
2022/04/26 12:01:11;;;;;;;6.60;1.92;;;13.20;95.80;;;;;;5111409;28;20044;-78
2022/04/26 12:03:49;;;;;;;2.80;1.40;;;13.40;95.70;;;;;;5111394;28;20055;-79
2022/04/26 12:06:32;;;;;;;3.63;1.63;;;13.60;96.70;;;;;;5102613;28;20040;-80
2022/04/26 12:09:03;;;;;;;3.95;1.55;;;13.80;93.80;;;;;;5108385;28;20494;-79
2022/04/26 12:11:38;;;;;;;5.40;1.95;;;13.70;94.40;;;;;;5100111;28;20051;-79
2022/04/26 12:14:08;;;;;;;6.32;1.95;;;13.90;93.40;;;;;;5097216;28;20100;-78
2022/04/26 12:16:44;;;;;;;3.45;1.33;;;13.90;91.40;;;;;;5095786;28;20128;-78
2022/04/26 12:19:11;;;;;;;2.95;1.92;;;13.80;88.70;;;;;;5103043;28;20043;-79
2022/04/26 12:21:52;;;;;;;3.83;1.45;;;13.60;90.70;;;;;;5107645;28;20043;-80
2022/04/26 12:24:27;;;;;;;3.50;2.03;;;13.30;92.40;;;;;;5105909;28;20056;-80
2022/04/26 12:27:05;;;;;;;5.25;2.17;;;13.40;94.50;;;;;;5096575;28;20036;-78
2022/04/26 12:29:38;;;;;;;5.72;2.15;;;13.50;94.70;;;;;;5096780;28;20047;-78
2022/04/26 12:32:06;;;;;;;9.85;1.95;;;13.60;94.10;;;;;;5096024;28;20075;-78
2022/04/26 12:34:33;;;;;;;4.35;1.90;;;13.70;91.70;;;;;;5095315;28;20391;-79
2022/04/26 12:36:58;;;;;;;2.90;1.92;;;13.90;94.70;;;;;;5100962;28;20039;-79
2022/04/26 12:39:44;;;;;;;5.75;1.70;;;13.90;92.60;;;;;;5106964;28;20044;-79
2022/04/26 12:42:39;;;;;;;3.70;1.85;;;13.80;92.50;;;;;;5123433;27;20047;-77
2022/04/26 12:45:13;;;;;;;6.03;2.22;;;13.50;93.50;;;;;;5097074;28;20052;-79
2022/04/26 12:50:28;;;;;;;4.00;2.13;;;13.60;95.90;;;;;;5125925;27;20435;-77
2022/04/26 12:53:23;;;;;;;2.55;1.85;;;13.70;94.70;;;;;;5115889;28;20289;-79
2022/04/26 12:55:50;;;;;;;6.45;2.00;;;13.80;93.10;;;;;;5112764;28;20443;-80
2022/04/26 12:58:17;;;;;;;5.85;2.20;;;13.60;92.40;;;;;;5116537;28;20150;-79
2022/04/26 13:00:50;;;;;;;5.45;2.40;;;13.30;94.10;;;;;;5115829;28;20482;-79
2022/04/26 13:03:19;;;;;;;9.90;3.22;;;13.10;95.00;;;;;;5097281;28;20048;-78
2022/04/26 13:05:47;;;;;;;5.38;1.83;;;13.20;97.00;;;;;;5095049;28;20058;-78
2022/04/26 13:08:15;;;;;;;3.67;1.70;;;13.40;97.50;;;;;;5095422;28;20044;-78
2022/04/26 13:10:42;;;;;;;3.03;1.65;;;13.70;96.60;;;;;;5094772;28;20105;-80
2022/04/26 13:13:09;;;;;;;5.43;2.60;;;13.80;94.00;;;;;;5127353;27;20048;-79
2022/04/26 13:15:36;;;;;;;10.13;2.50;;;13.80;94.20;;;;;;5115709;28;20401;-78
2022/04/26 13:18:03;;;;;;;6.55;2.40;;;13.70;92.40;;;;;;5100910;28;20090;-79
2022/04/26 13:20:29;;;;;;;5.53;1.80;;;13.70;92.90;;;;;;5095926;28;20379;-80
2022/04/26 13:22:56;;;;;;;3.28;2.30;;;13.80;92.60;;;;;;5107484;28;20055;-79
2022/04/26 13:25:22;;;;;;;4.75;2.28;;;13.70;94.10;;;;;;5115894;28;20040;-79
2022/04/26 13:27:48;;;;;;;4.07;2.00;;;13.60;95.10;;;;;;5115335;28;20471;-79
2022/04/26 13:30:16;;;;;;;4.75;2.15;;;13.30;95.00;;;;;;5108500;28;20125;-79
2022/04/26 13:32:42;;;;;;;4.20;2.42;;;13.30;96.00;;;;;;5094564;28;20448;-79
2022/04/26 13:35:08;;;;;;;4.70;2.10;;;13.30;96.60;;;;;;5114068;27;20118;-77
2022/04/26 13:37:35;;;;;;;5.60;2.25;;;13.20;97.10;;;;;;5114866;28;20047;-78
2022/04/26 13:40:02;;;;;;;7.45;2.72;;;13.40;98.80;;;;;;5112342;28;20073;-79
2022/04/26 13:42:30;;;;;;;5.32;1.70;;;13.50;97.70;;;;;;5094437;28;20123;-79
2022/04/26 13:45:00;;;;;;;7.18;2.20;;;13.60;95.10;;;;;;5095935;28;20040;-79
2022/04/26 13:47:26;;;;;;;4.40;1.73;;;13.40;93.30;;;;;;5115312;28;20051;-78
2022/04/26 13:49:52;;;;;;;5.53;2.35;;;13.30;94.80;;;;;;5114106;28;20058;-78
2022/04/26 13:52:20;;;;;;;3.63;1.88;;;13.20;95.20;;;;;;5095023;28;20060;-78
2022/04/26 13:54:46;;;;;;;3.47;1.80;;;13.30;96.50;;;;;;5106684;28;20079;-78
2022/04/26 13:57:12;;;;;;;4.70;1.75;;;13.40;95.80;;;;;;5114962;28;20051;-80
2022/04/26 13:59:38;;;;;;;4.85;2.03;;;13.40;95.50;;;;;;5114245;28;20078;-79
2022/04/26 14:02:06;;;;;;;5.13;2.13;;;13.30;95.60;;;;;;5103156;28;20486;-78
2022/04/26 14:04:32;;;;;;;5.15;2.03;;;13.40;96.80;;;;;;5114362;28;20383;-78
2022/04/26 14:06:58;;;;;;;4.45;2.05;;;13.50;97.20;;;;;;5112823;28;20059;-80
2022/04/26 14:09:24;;;;;;;5.07;1.92;;;13.50;96.20;;;;;;5103814;28;20040;-79
2022/04/26 14:11:51;;;;;;;8.68;1.90;;;13.60;98.40;;;;;;5094189;28;20036;-80
2022/04/26 14:22:32;;;;;;;10.17;2.77;;;13.40;96.90;;;;;;5114722;28;20051;-78
2022/04/26 14:24:59;;;;;;;8.32;2.58;;;13.30;98.00;;;;;;5114361;28;20055;-78
2022/04/26 14:27:26;;;;;;;4.75;2.08;;;13.20;97.60;;;;;;5113659;28;20127;-78
2022/04/26 14:29:52;;;;;;;3.60;1.80;;;13.00;97.10;;;;;;5112611;28;20052;-79
2022/04/26 14:32:18;;;;;;;3.10;1.90;;;12.80;97.80;;;;;;5109983;28;20043;-78
2022/04/26 14:34:44;;;;;;;5.90;3.33;;;12.60;97.50;;;;;;5114312;28;20039;-78
2022/04/26 14:37:10;;;;;;;3.30;1.40;;;12.50;98.60;;;;;;5098075;28;20044;-79
2022/04/26 14:39:36;;;;;;;5.05;2.22;;;12.40;98.80;;;;;;5092418;28;20044;-78
2022/04/26 14:42:03;;;;;;;5.50;1.95;;;12.30;99.00;;;;;;5094616;28;20124;-80
2022/04/26 14:44:28;;;;;;;8.57;2.10;;;12.20;99.20;;;;;;5094427;28;20572;-78
2022/04/26 14:46:54;;;;;;;7.22;2.40;;;12.10;99.70;;;;;;5093654;28;20040;-79
2022/04/26 14:49:20;;;;;;;4.05;1.80;;;12.10;99.90;;;;;;5094142;28;20546;-81
2022/04/26 14:51:46;;;;;;;3.95;1.83;;;12.30;99.90;;;;;;5094045;28;20132;-79
2022/04/26 14:54:12;;;;;;;3.50;2.05;;;12.50;99.90;;;;;;5093588;28;20376;-78
2022/04/26 14:56:38;;;;;;;4.57;1.98;;;12.70;99.60;;;;;;5094107;28;20052;-77
2022/04/26 14:59:05;;;;;;;4.88;2.10;;;12.90;98.90;;;;;;5094223;28;20032;-78
2022/04/26 15:01:31;;;;;;;6.90;3.00;;;13.00;98.40;;;;;;5093301;28;20101;-79
2022/04/26 15:03:57;;;;;;;10.00;2.13;;;12.90;98.10;;;;;;5093950;28;20032;-77
2022/04/26 15:06:23;;;;;;;4.18;2.03;;;12.90;99.10;;;;;;5093700;28;20068;-78
2022/04/26 15:11:34;;;;;;;6.28;2.97;;;13.10;96.60;;;;;;5094065;28;20048;-80
2022/04/26 15:16:46;;;;;;;8.93;2.47;;;12.50;97.20;;;;;;5094064;28;20395;-78
2022/04/26 15:19:14;;;;;;;6.50;2.60;;;12.20;98.40;;;;;;5093926;28;20052;-78
2022/04/26 15:21:43;;;;;;;6.13;2.10;;;12.10;99.50;;;;;;5091661;28;20047;-79
2022/04/26 15:24:11;;;;;;;4.88;2.40;;;11.90;99.50;;;;;;5095801;28;20043;-78
2022/04/26 15:26:36;;;;;;;7.78;2.88;;;11.80;99.90;;;;;;5114019;28;20055;-78
2022/04/26 15:29:05;;;;;;;4.18;2.20;;;11.70;99.90;;;;;;5110918;28;20077;-78
2022/04/26 15:31:32;;;;;;;7.50;2.28;;;11.70;99.90;;;;;;5114001;28;20044;-78
2022/04/26 15:33:58;;;;;;;6.50;2.22;;;11.70;99.90;;;;;;5114055;28;20051;-77
2022/04/26 15:36:24;;;;;;;3.38;2.13;;;11.60;99.90;;;;;;5110165;28;20050;-78
2022/04/26 15:38:54;;;;;;;3.53;2.33;;;11.70;99.90;;;;;;5113107;28;20035;-79
2022/04/26 15:41:23;;;;;;;4.95;2.10;;;12.00;99.90;;;;;;5113187;28;20048;-79
2022/04/26 15:43:50;;;;;;;4.55;1.95;;;12.30;99.30;;;;;;5112020;28;20398;-79
2022/04/26 15:46:16;;;;;;;5.35;2.30;;;12.70;99.70;;;;;;5114658;28;20047;-78
2022/04/26 15:48:47;;;;;;;2.53;1.85;;;13.00;99.30;;;;;;5104419;28;20044;-78
2022/04/26 15:51:16;;;;;;;4.82;1.98;;;13.30;98.20;;;;;;5097490;28;20071;-78
2022/04/26 15:53:42;;;;;;;5.78;1.58;;;13.40;97.60;;;;;;5098176;28;20052;-79
2022/04/26 15:56:08;;;;;;;4.63;1.77;;;13.50;94.30;;;;;;5098359;28;21481;-77
2022/04/26 15:58:34;;;;;;;2.92;1.70;;;13.50;92.80;;;;;;5118062;28;20039;-78
2022/04/26 16:01:00;;;;;;;5.18;1.23;;;13.50;92.30;;;;;;5116873;28;20047;-78
2022/04/26 16:03:26;;;;;;;8.45;2.05;;;13.50;91.70;;;;;;5114510;28;20367;-77
2022/04/26 16:05:52;;;;;;;3.97;1.70;;;13.30;91.20;;;;;;5117787;28;20050;-79
2022/04/26 16:08:17;;;;;;;4.38;1.98;;;13.30;91.60;;;;;;5115468;28;20043;-79
2022/04/26 16:21:40;;;;;;;6.80;2.13;;;13.50;89.40;;;;;;5097255;28;20040;-79
2022/04/26 16:24:07;;;;;;;6.28;2.47;;;13.50;91.70;;;;;;5096535;28;20494;-79
2022/04/26 16:26:36;;;;;;;3.90;2.08;;;13.60;92.60;;;;;;5097056;28;20119;-79
2022/04/26 16:29:04;;;;;;;5.18;1.90;;;13.30;92.50;;;;;;5100583;28;20475;-80
2022/04/26 16:31:32;;;;;;;6.95;2.55;;;13.10;93.50;;;;;;5096236;28;20406;-79
2022/04/26 16:33:59;;;;;;;5.78;2.85;;;12.80;93.70;;;;;;5113170;28;20082;-79
2022/04/26 16:36:26;;;;;;;7.05;1.85;;;12.40;95.60;;;;;;5117403;28;20101;-79
2022/04/26 16:38:52;;;;;;;6.82;1.83;;;12.00;96.40;;;;;;5101858;28;20051;-78
2022/04/26 16:41:19;;;;;;;7.55;2.15;;;11.70;97.20;;;;;;5095708;28;20399;-79
2022/04/26 16:43:46;;;;;;;7.60;2.05;;;11.60;97.90;;;;;;5108343;28;20043;-78
2022/04/26 16:46:16;;;;;;;7.05;1.98;;;11.40;98.20;;;;;;5099111;28;20413;-78
2022/04/26 16:48:48;;;;;;;4.57;1.70;;;11.30;98.80;;;;;;5096426;28;20048;-78
2022/04/26 16:51:19;;;;;;;9.57;2.10;;;11.20;98.60;;;;;;5096556;28;20432;-78
2022/04/26 16:53:46;;;;;;;4.00;1.40;;;11.10;98.50;;;;;;5096233;28;20048;-78
2022/04/26 16:56:12;;;;;;;4.55;1.65;;;11.00;99.00;;;;;;5096669;28;20453;-78
2022/04/26 16:58:38;;;;;;;5.43;2.13;;;10.90;99.10;;;;;;5096495;28;20124;-79
2022/04/26 17:01:04;;;;;;;8.20;2.72;;;10.90;99.40;;;;;;5095794;28;20040;-78
2022/04/26 17:03:30;;;;;;;3.67;2.03;;;10.90;99.60;;;;;;5105226;28;20044;-77
2022/04/26 17:05:56;;;;;;;5.80;1.88;;;10.90;99.80;;;;;;5117126;28;20039;-78
2022/04/26 17:08:22;;;;;;;8.20;2.05;;;11.00;99.80;;;;;;5108364;28;20378;-78
2022/04/26 17:10:48;;;;;;;5.85;1.70;;;11.00;99.30;;;;;;5096355;28;20044;-78
2022/04/26 17:13:15;;;;;;;5.38;1.88;;;11.10;99.50;;;;;;5095769;28;20032;-80
2022/04/26 17:15:41;;;;;;;4.18;1.83;;;11.10;99.90;;;;;;5096146;28;20478;-79
2022/04/26 17:18:07;;;;;;;3.28;1.70;;;11.10;99.90;;;;;;5100102;28;20071;-79